Time;durP1;ratioP1;P1;durP2;ratioP2;P2;SDS_P1;SDS_P2;PMS_P1;PMS_P2;Temp;Humidity;BMP_temperature;BMP_pressure;BME280_temperature;BME280_humidity;BME280_pressure;Samples;Min_cycle;Max_cycle;Signal;HPM_P1;HPM_P2
2023/12/03 00:02:12;;;;;;;26.52;16.48;;;0.90;99.90;;;;;;5128450;27;20518;-67
2023/12/03 00:04:39;;;;;;;26.58;16.08;;;0.30;99.90;;;;;;5126535;27;20070;-68
2023/12/03 00:07:04;;;;;;;24.35;16.42;;;0.90;99.90;;;;;;5112307;27;20048;-68
2023/12/03 00:09:30;;;;;;;32.85;19.52;;;0.30;99.90;;;;;;5130000;27;20044;-68
2023/12/03 00:11:56;;;;;;;27.42;16.05;;;0.20;99.90;;;;;;5117828;28;20028;-68
2023/12/03 00:14:22;;;;;;;25.15;15.07;;;0.40;99.90;;;;;;5112234;28;20109;-68
2023/12/03 00:16:47;;;;;;;24.83;15.32;;;0.20;99.90;;;;;;5128916;27;20069;-68
2023/12/03 00:19:13;;;;;;;25.90;16.52;;;0.10;99.90;;;;;;5126643;27;20047;-68
2023/12/03 00:21:39;;;;;;;28.80;17.35;;;0.10;99.90;;;;;;5124741;27;20039;-68
2023/12/03 00:24:05;;;;;;;23.00;16.17;;;0.10;99.90;;;;;;5135597;27;20083;-68
2023/12/03 00:26:31;;;;;;;31.48;16.90;;;0.10;99.90;;;;;;5099713;28;20517;-68
2023/12/03 00:28:57;;;;;;;29.70;16.00;;;0.10;99.90;;;;;;5105663;28;20039;-68
2023/12/03 00:31:23;;;;;;;22.42;16.95;;;0.10;99.90;;;;;;5136972;27;20064;-68
2023/12/03 00:33:48;;;;;;;25.98;15.93;;;0.10;99.90;;;;;;5129497;27;20102;-68
2023/12/03 00:36:14;;;;;;;24.20;14.95;;;0.10;99.90;;;;;;5135412;27;20035;-67
2023/12/03 00:38:40;;;;;;;26.67;15.73;;;0.90;99.90;;;;;;5131604;27;20066;-68
2023/12/03 00:41:06;;;;;;;24.58;15.20;;;0.40;99.90;;;;;;5110465;27;20035;-67
2023/12/03 00:43:31;;;;;;;24.25;16.00;;;0.10;99.90;;;;;;5133646;27;20047;-67
2023/12/03 00:45:57;;;;;;;22.88;14.02;;;0.80;99.90;;;;;;5133893;27;20099;-67
2023/12/03 00:48:23;;;;;;;24.38;14.35;;;0.10;99.90;;;;;;5126098;27;20099;-67
2023/12/03 00:50:49;;;;;;;27.08;15.23;;;0.20;99.90;;;;;;5132224;27;20119;-67
2023/12/03 00:53:15;;;;;;;26.27;15.82;;;0.10;99.90;;;;;;5096709;27;20112;-67
2023/12/03 00:55:40;;;;;;;20.65;14.15;;;0.10;99.90;;;;;;5116774;27;20038;-67
2023/12/03 00:58:06;;;;;;;19.90;12.77;;;0.10;99.90;;;;;;5126629;27;20039;-67
2023/12/03 01:00:32;;;;;;;22.20;14.45;;;0.10;99.90;;;;;;5136051;27;20088;-67
2023/12/03 01:02:57;;;;;;;21.30;14.02;;;0.10;99.90;;;;;;5127928;27;20043;-67
2023/12/03 01:05:23;;;;;;;27.05;13.80;;;0.30;99.90;;;;;;5126066;27;20046;-67
2023/12/03 01:07:49;;;;;;;24.63;16.25;;;0.10;99.90;;;;;;5127992;27;20137;-67
2023/12/03 01:10:15;;;;;;;22.52;14.73;;;0.00;99.90;;;;;;5109214;27;20149;-67
2023/12/03 01:12:40;;;;;;;23.02;13.35;;;0.00;99.90;;;;;;5112504;27;20050;-67
2023/12/03 01:15:06;;;;;;;23.13;14.63;;;0.40;99.90;;;;;;5118157;27;20502;-67
2023/12/03 01:17:32;;;;;;;25.15;14.77;;;0.00;99.90;;;;;;5094683;27;20043;-67
2023/12/03 01:19:58;;;;;;;24.40;15.73;;;0.00;99.90;;;;;;5140352;27;20091;-67
2023/12/03 01:22:24;;;;;;;23.13;14.85;;;0.10;99.90;;;;;;5115109;27;20043;-67
2023/12/03 01:24:49;;;;;;;18.58;15.02;;;0.10;99.90;;;;;;5124996;27;20044;-67
2023/12/03 01:27:15;;;;;;;27.00;14.75;;;0.70;99.90;;;;;;5104289;28;20039;-67
2023/12/03 01:29:42;;;;;;;19.70;14.00;;;0.10;99.90;;;;;;5106156;27;20040;-67
2023/12/03 01:32:08;;;;;;;23.13;14.18;;;0.10;99.90;;;;;;5121345;27;20047;-66
2023/12/03 01:34:33;;;;;;;23.13;14.85;;;0.10;99.90;;;;;;5128085;27;20039;-66
2023/12/03 01:36:59;;;;;;;23.88;14.07;;;0.70;99.90;;;;;;5108413;27;20039;-66
2023/12/03 01:39:25;;;;;;;25.58;15.00;;;0.10;99.90;;;;;;5127417;27;20111;-66
2023/12/03 01:41:52;;;;;;;21.23;14.35;;;0.10;99.90;;;;;;5107854;27;20144;-67
2023/12/03 01:44:18;;;;;;;20.23;14.13;;;0.10;99.90;;;;;;5109757;27;20056;-66
2023/12/03 01:46:48;;;;;;;18.83;12.75;;;0.30;99.90;;;;;;5103726;28;20090;-66
2023/12/03 01:49:14;;;;;;;22.40;14.30;;;0.20;99.90;;;;;;5127236;27;20051;-66
2023/12/03 01:51:41;;;;;;;20.15;13.48;;;0.20;99.90;;;;;;5121412;28;20040;-66
2023/12/03 01:54:06;;;;;;;21.17;14.65;;;0.20;99.90;;;;;;5125022;27;20101;-67
2023/12/03 01:56:32;;;;;;;20.25;13.82;;;0.20;99.90;;;;;;5125203;27;20039;-67
2023/12/03 01:58:58;;;;;;;24.00;14.20;;;0.20;99.90;;;;;;5103769;28;20103;-67
2023/12/03 02:01:24;;;;;;;18.38;14.90;;;0.20;99.90;;;;;;5127692;27;20039;-66
2023/12/03 02:03:50;;;;;;;21.55;14.05;;;0.20;99.90;;;;;;5133442;27;20043;-68
2023/12/03 02:06:15;;;;;;;21.15;14.00;;;0.20;99.90;;;;;;5115275;27;20072;-66
2023/12/03 02:08:41;;;;;;;23.85;14.60;;;0.20;99.90;;;;;;5103016;28;20047;-67
2023/12/03 02:11:07;;;;;;;21.17;13.15;;;0.20;99.90;;;;;;5106548;28;20050;-67
2023/12/03 02:13:36;;;;;;;21.55;14.18;;;0.20;99.90;;;;;;5113501;27;20069;-67
2023/12/03 02:16:02;;;;;;;25.67;15.85;;;0.20;99.90;;;;;;5122441;28;20044;-67
2023/12/03 02:18:27;;;;;;;22.77;14.93;;;0.20;99.90;;;;;;5103697;28;20044;-67
2023/12/03 02:20:56;;;;;;;23.02;14.40;;;0.20;99.90;;;;;;5134330;27;20519;-66
2023/12/03 02:23:22;;;;;;;22.98;15.73;;;0.20;99.90;;;;;;5127487;27;20050;-67
2023/12/03 02:25:50;;;;;;;21.95;14.95;;;0.30;99.90;;;;;;5120802;28;20110;-67
2023/12/03 02:28:16;;;;;;;25.80;15.73;;;0.30;99.90;;;;;;5105614;28;20043;-67
2023/12/03 02:30:42;;;;;;;25.92;15.45;;;0.20;99.90;;;;;;5102838;28;20097;-67
2023/12/03 02:33:08;;;;;;;27.02;16.70;;;0.30;99.90;;;;;;5103657;28;20454;-67
2023/12/03 02:35:34;;;;;;;24.02;15.13;;;0.30;99.90;;;;;;5137491;27;20061;-67
2023/12/03 02:37:59;;;;;;;24.75;16.77;;;0.30;99.90;;;;;;5081267;27;20036;-67
2023/12/03 02:40:25;;;;;;;35.67;17.83;;;0.70;99.90;;;;;;5114820;28;20562;-67
2023/12/03 02:42:51;;;;;;;30.95;18.67;;;1.10;99.90;;;;;;5102604;28;20118;-67
2023/12/03 02:45:17;;;;;;;45.13;18.38;;;0.50;99.90;;;;;;5103469;28;20044;-67
2023/12/03 02:47:43;;;;;;;32.15;16.85;;;0.30;99.90;;;;;;5120492;28;20055;-67
2023/12/03 02:50:09;;;;;;;28.42;16.55;;;0.30;99.90;;;;;;5086881;28;20500;-67
2023/12/03 02:52:35;;;;;;;39.78;17.85;;;0.30;99.90;;;;;;5096942;27;20044;-68
2023/12/03 02:55:00;;;;;;;39.05;18.50;;;0.60;99.90;;;;;;5121898;27;20047;-67
2023/12/03 02:57:26;;;;;;;43.60;16.85;;;0.80;99.90;;;;;;5123512;27;20035;-67
2023/12/03 02:59:52;;;;;;;49.05;18.02;;;0.30;99.90;;;;;;5105412;27;20101;-67
2023/12/03 03:02:18;;;;;;;43.47;18.98;;;0.30;99.90;;;;;;5121942;28;20036;-67
2023/12/03 03:04:43;;;;;;;52.03;17.55;;;0.30;99.90;;;;;;5122840;27;20040;-67
2023/12/03 03:07:09;;;;;;;40.42;18.98;;;0.40;99.90;;;;;;5108222;27;20042;-67
2023/12/03 03:09:35;;;;;;;29.25;16.92;;;0.30;99.90;;;;;;5126288;28;20040;-67
2023/12/03 03:12:00;;;;;;;48.22;16.88;;;0.30;99.90;;;;;;5122560;28;20036;-67
2023/12/03 03:14:26;;;;;;;41.58;17.73;;;1.00;99.90;;;;;;5127113;28;20043;-67
2023/12/03 03:16:52;;;;;;;36.83;17.13;;;0.40;99.90;;;;;;5121378;28;20123;-67
2023/12/03 03:19:17;;;;;;;40.85;18.52;;;0.30;99.90;;;;;;5131514;28;20043;-67
2023/12/03 03:21:43;;;;;;;41.88;18.02;;;0.40;99.90;;;;;;5120850;28;20048;-68
2023/12/03 03:24:09;;;;;;;38.80;17.95;;;0.30;99.90;;;;;;5107664;28;20043;-67
2023/12/03 03:26:35;;;;;;;61.60;18.17;;;0.30;99.90;;;;;;5112106;28;20039;-67
2023/12/03 03:29:01;;;;;;;50.70;17.95;;;0.30;99.90;;;;;;5142047;28;20054;-67
2023/12/03 03:31:26;;;;;;;43.75;17.08;;;0.30;99.90;;;;;;5130606;27;20092;-67
2023/12/03 03:33:54;;;;;;;63.53;16.35;;;0.30;99.90;;;;;;5116697;28;20085;-67
2023/12/03 03:36:20;;;;;;;37.22;16.73;;;0.30;99.90;;;;;;5097619;27;20051;-67
2023/12/03 03:38:45;;;;;;;35.97;19.02;;;0.30;99.90;;;;;;5129857;27;20032;-67
2023/12/03 03:41:11;;;;;;;44.28;16.50;;;0.30;99.90;;;;;;5108556;27;20047;-67
2023/12/03 03:43:37;;;;;;;74.55;17.90;;;0.30;99.90;;;;;;5143801;27;20088;-67
2023/12/03 03:46:03;;;;;;;54.05;17.98;;;0.30;99.90;;;;;;5126157;28;20136;-66
2023/12/03 03:48:29;;;;;;;54.40;18.65;;;0.30;99.90;;;;;;5123081;28;20041;-67
2023/12/03 03:50:55;;;;;;;41.55;20.00;;;0.30;99.90;;;;;;5127373;27;20035;-68
2023/12/03 03:53:21;;;;;;;50.97;20.20;;;0.30;99.90;;;;;;5112097;27;20407;-67
2023/12/03 03:55:47;;;;;;;51.75;16.92;;;0.40;99.90;;;;;;5139035;27;20046;-67
2023/12/03 03:58:13;;;;;;;31.80;18.83;;;1.50;99.90;;;;;;5090246;28;20109;-67
2023/12/03 04:00:39;;;;;;;37.03;19.02;;;0.30;99.90;;;;;;5103651;27;20103;-67
2023/12/03 04:03:05;;;;;;;43.58;17.92;;;0.30;99.90;;;;;;5111649;28;20061;-67
2023/12/03 04:05:30;;;;;;;52.30;18.00;;;0.30;99.90;;;;;;5089244;28;20039;-67
2023/12/03 04:07:56;;;;;;;40.83;18.23;;;0.30;99.90;;;;;;5136485;27;20042;-67
2023/12/03 04:10:22;;;;;;;50.92;19.20;;;0.30;99.90;;;;;;5113772;27;20047;-67
2023/12/03 04:12:48;;;;;;;58.53;19.63;;;0.70;99.90;;;;;;5123811;28;20063;-67
2023/12/03 04:15:14;;;;;;;48.05;18.17;;;0.30;99.90;;;;;;5125329;28;20047;-67
2023/12/03 04:17:39;;;;;;;81.60;22.15;;;0.30;99.90;;;;;;5132683;27;20123;-67
2023/12/03 04:20:06;;;;;;;43.65;18.88;;;0.30;99.90;;;;;;5124650;28;20064;-67
2023/12/03 04:22:32;;;;;;;47.20;17.23;;;0.30;99.90;;;;;;5101700;28;20036;-67
2023/12/03 04:24:58;;;;;;;54.72;18.83;;;0.30;99.90;;;;;;5112899;27;20043;-67
2023/12/03 04:27:25;;;;;;;40.22;17.15;;;0.40;99.90;;;;;;5105895;27;20051;-67
2023/12/03 04:29:51;;;;;;;44.65;19.73;;;0.40;99.90;;;;;;5109888;27;20065;-68
2023/12/03 04:32:16;;;;;;;50.63;18.52;;;0.40;99.90;;;;;;5106805;28;20032;-68
2023/12/03 04:34:42;;;;;;;41.53;17.13;;;0.40;99.90;;;;;;5104606;28;20036;-67
2023/12/03 04:37:07;;;;;;;37.28;18.02;;;0.80;99.90;;;;;;5124368;28;20047;-68
2023/12/03 04:39:34;;;;;;;28.50;15.75;;;0.40;99.90;;;;;;5107072;27;20180;-68
2023/12/03 04:42:00;;;;;;;25.58;13.73;;;0.90;99.90;;;;;;5134720;27;20048;-68
2023/12/03 04:44:27;;;;;;;28.42;16.02;;;0.30;99.90;;;;;;5136941;27;20061;-67
2023/12/03 04:46:53;;;;;;;48.95;18.55;;;0.40;99.90;;;;;;5119684;27;20104;-67
2023/12/03 04:49:19;;;;;;;41.72;19.83;;;0.70;99.90;;;;;;5133109;27;20031;-67
2023/12/03 04:51:44;;;;;;;37.08;17.77;;;0.30;99.90;;;;;;5107178;27;20062;-67
2023/12/03 04:54:10;;;;;;;36.38;18.05;;;0.60;99.90;;;;;;5106568;27;20043;-67
2023/12/03 04:56:36;;;;;;;34.55;16.65;;;0.40;99.90;;;;;;5117673;27;20078;-67
2023/12/03 04:59:01;;;;;;;33.08;15.77;;;0.40;99.90;;;;;;5107252;28;20046;-67
2023/12/03 05:01:27;;;;;;;51.50;16.65;;;0.40;99.90;;;;;;5140370;27;20054;-66
2023/12/03 05:03:53;;;;;;;31.13;17.52;;;0.40;99.90;;;;;;5100389;27;20039;-67
2023/12/03 05:06:19;;;;;;;39.60;19.60;;;0.40;99.90;;;;;;5138934;27;20086;-67
2023/12/03 05:08:45;;;;;;;79.57;18.88;;;0.40;99.90;;;;;;5122840;27;20493;-67
2023/12/03 05:11:10;;;;;;;32.55;17.17;;;0.40;99.90;;;;;;5136597;27;20038;-67
2023/12/03 05:13:36;;;;;;;42.40;19.10;;;0.80;99.90;;;;;;5131911;27;20463;-67
2023/12/03 05:16:04;;;;;;;37.38;18.70;;;0.40;99.90;;;;;;5123412;28;20031;-67
2023/12/03 05:18:30;;;;;;;45.35;19.33;;;0.40;99.90;;;;;;5122834;28;20050;-67
2023/12/03 05:20:57;;;;;;;32.72;18.02;;;0.40;99.90;;;;;;5113217;28;20107;-67
2023/12/03 05:23:23;;;;;;;42.47;18.20;;;0.40;99.90;;;;;;5130317;27;20042;-67
2023/12/03 05:25:49;;;;;;;36.85;18.35;;;0.40;99.90;;;;;;5121962;28;20031;-68
2023/12/03 05:28:14;;;;;;;30.90;15.68;;;0.50;99.90;;;;;;5105310;28;20046;-67
2023/12/03 05:30:40;;;;;;;37.13;16.25;;;0.40;99.90;;;;;;5111950;27;20031;-67
2023/12/03 05:33:06;;;;;;;33.35;16.83;;;0.80;99.90;;;;;;5129965;27;20038;-67
2023/12/03 05:35:32;;;;;;;37.55;17.42;;;0.50;99.90;;;;;;5122504;28;20048;-67
2023/12/03 05:38:01;;;;;;;42.75;17.45;;;0.50;99.90;;;;;;5089214;28;20043;-67
2023/12/03 05:40:26;;;;;;;32.38;16.45;;;0.50;99.90;;;;;;5100250;27;20068;-67
2023/12/03 05:42:52;;;;;;;35.85;17.30;;;0.50;99.90;;;;;;5127528;27;20483;-67
2023/12/03 05:45:18;;;;;;;36.42;17.33;;;0.50;99.90;;;;;;5133435;27;20047;-67
2023/12/03 05:47:44;;;;;;;35.20;16.77;;;0.50;99.90;;;;;;5109906;27;20051;-67
2023/12/03 05:50:09;;;;;;;44.70;19.52;;;0.50;99.90;;;;;;5133031;27;20050;-67
2023/12/03 05:52:35;;;;;;;37.63;17.38;;;0.50;99.90;;;;;;5103861;27;20047;-68
2023/12/03 05:55:01;;;;;;;37.55;17.90;;;0.50;99.90;;;;;;5133337;27;20044;-67
2023/12/03 05:57:27;;;;;;;24.70;14.23;;;1.50;99.90;;;;;;5122654;28;20035;-68
2023/12/03 05:59:53;;;;;;;32.15;15.05;;;0.60;99.90;;;;;;5121599;28;20032;-67
2023/12/03 06:02:20;;;;;;;25.13;15.10;;;0.50;99.90;;;;;;5122826;28;20292;-67
2023/12/03 06:04:46;;;;;;;31.48;15.30;;;0.50;99.90;;;;;;5103362;28;20071;-67
2023/12/03 06:07:12;;;;;;;33.88;16.23;;;0.50;99.90;;;;;;5126007;27;20044;-68
2023/12/03 06:09:37;;;;;;;34.65;15.95;;;0.50;99.90;;;;;;5114695;27;20043;-68
2023/12/03 06:12:04;;;;;;;38.40;18.65;;;0.50;99.90;;;;;;5121976;28;20044;-68
2023/12/03 06:14:30;;;;;;;42.72;18.10;;;0.50;99.90;;;;;;5124742;27;20047;-67
2023/12/03 06:16:56;;;;;;;41.13;17.23;;;0.50;99.90;;;;;;5138706;27;20394;-67
2023/12/03 06:19:22;;;;;;;36.97;17.52;;;0.70;99.90;;;;;;5109382;27;20079;-68
2023/12/03 06:21:48;;;;;;;45.03;18.67;;;0.50;99.90;;;;;;5104503;27;20043;-68
2023/12/03 06:24:13;;;;;;;47.53;18.75;;;0.60;99.90;;;;;;5122816;27;20043;-68
2023/12/03 06:26:39;;;;;;;36.72;16.13;;;0.60;99.90;;;;;;5085743;28;20048;-68
2023/12/03 06:29:05;;;;;;;40.40;18.90;;;0.60;99.90;;;;;;5103843;28;20043;-68
2023/12/03 06:31:32;;;;;;;37.83;17.33;;;0.60;99.90;;;;;;5127060;27;20080;-68
2023/12/03 06:33:58;;;;;;;38.55;16.88;;;0.60;99.90;;;;;;5087190;28;20111;-67
2023/12/03 06:36:25;;;;;;;36.00;17.70;;;0.60;99.90;;;;;;5111979;27;20043;-67
2023/12/03 06:38:51;;;;;;;29.88;16.60;;;0.90;99.90;;;;;;5141141;27;20047;-68
2023/12/03 06:41:17;;;;;;;38.28;16.45;;;0.60;99.90;;;;;;5123376;28;20040;-67
2023/12/03 06:43:43;;;;;;;31.95;16.38;;;0.60;99.90;;;;;;5106538;27;20039;-67
2023/12/03 06:46:08;;;;;;;35.22;15.88;;;0.70;99.90;;;;;;5118024;28;20088;-68
2023/12/03 06:48:34;;;;;;;36.00;17.67;;;1.30;99.90;;;;;;5096477;28;20506;-67
2023/12/03 06:51:00;;;;;;;26.85;15.43;;;2.30;99.90;;;;;;5105963;27;20054;-67
2023/12/03 06:53:25;;;;;;;27.13;15.07;;;0.70;99.90;;;;;;5104987;28;20156;-67
2023/12/03 06:55:51;;;;;;;26.15;15.25;;;0.70;99.90;;;;;;5088563;27;20067;-68
2023/12/03 06:58:17;;;;;;;28.65;14.88;;;0.80;99.90;;;;;;5116534;28;20052;-68
2023/12/03 07:00:43;;;;;;;34.72;16.88;;;0.80;99.90;;;;;;5119767;28;20075;-67
2023/12/03 07:03:08;;;;;;;31.15;15.88;;;1.30;99.90;;;;;;5103283;28;20035;-68
2023/12/03 07:05:34;;;;;;;32.15;16.83;;;0.80;99.90;;;;;;5088477;28;20058;-67
2023/12/03 07:08:00;;;;;;;30.80;15.23;;;0.80;99.90;;;;;;5107855;28;20047;-68
2023/12/03 07:10:25;;;;;;;27.95;15.25;;;0.80;99.90;;;;;;5112620;28;20039;-68
2023/12/03 07:12:51;;;;;;;25.67;14.55;;;0.80;99.90;;;;;;5116585;28;20055;-68
2023/12/03 07:15:18;;;;;;;23.95;14.25;;;1.00;99.90;;;;;;5102802;28;20057;-67
2023/12/03 07:17:43;;;;;;;22.20;13.80;;;0.90;99.90;;;;;;5101964;28;20062;-67
2023/12/03 07:20:10;;;;;;;30.08;15.30;;;1.00;99.90;;;;;;5086151;28;20043;-68
2023/12/03 07:22:35;;;;;;;25.38;15.15;;;0.90;99.90;;;;;;5121379;28;20043;-67
2023/12/03 07:25:02;;;;;;;27.65;14.85;;;1.70;99.90;;;;;;5133693;28;20046;-68
2023/12/03 07:27:28;;;;;;;24.10;14.05;;;0.90;99.90;;;;;;5103016;28;20056;-68
2023/12/03 07:29:55;;;;;;;22.80;14.88;;;1.00;99.90;;;;;;5082376;28;20124;-68
2023/12/03 07:32:24;;;;;;;24.17;14.25;;;1.00;99.90;;;;;;5110775;28;20043;-68
2023/12/03 07:34:50;;;;;;;24.38;14.65;;;1.00;99.90;;;;;;5110728;28;20364;-67
2023/12/03 07:37:16;;;;;;;28.20;15.38;;;1.20;99.90;;;;;;5125322;28;20073;-68
2023/12/03 07:39:42;;;;;;;23.00;13.00;;;1.00;99.90;;;;;;5120968;28;20039;-68
2023/12/03 07:42:07;;;;;;;29.73;14.52;;;1.00;99.90;;;;;;5085214;28;20050;-68
2023/12/03 07:44:33;;;;;;;25.40;14.90;;;1.00;99.90;;;;;;5115555;28;20055;-67
2023/12/03 07:47:00;;;;;;;34.53;17.00;;;1.00;99.90;;;;;;5103025;28;20039;-68
2023/12/03 07:49:26;;;;;;;26.08;14.80;;;1.00;99.90;;;;;;5121269;28;20046;-68
2023/12/03 07:51:52;;;;;;;31.38;15.23;;;1.00;99.90;;;;;;5108055;28;20071;-68
2023/12/03 07:54:17;;;;;;;25.98;14.80;;;1.00;99.90;;;;;;5121436;28;20039;-68
2023/12/03 07:56:43;;;;;;;27.55;15.23;;;1.00;99.90;;;;;;5128376;28;20039;-68
2023/12/03 07:59:09;;;;;;;24.65;15.25;;;1.00;99.90;;;;;;5101170;28;20301;-68
2023/12/03 08:01:35;;;;;;;25.50;14.60;;;2.30;99.90;;;;;;5085709;28;20044;-68
2023/12/03 08:04:03;;;;;;;25.33;14.15;;;1.00;99.90;;;;;;5119736;28;20055;-68
2023/12/03 08:06:30;;;;;;;31.92;15.27;;;1.00;99.90;;;;;;5085165;28;20044;-68
2023/12/03 08:08:57;;;;;;;31.25;16.23;;;1.00;99.90;;;;;;5131618;28;20039;-68
2023/12/03 08:11:23;;;;;;;27.50;15.65;;;1.00;99.90;;;;;;5122111;28;20032;-69
2023/12/03 08:13:48;;;;;;;32.08;16.58;;;1.50;99.90;;;;;;5119328;28;20502;-68
2023/12/03 08:16:15;;;;;;;26.75;14.15;;;1.00;99.90;;;;;;5094756;28;20043;-68
2023/12/03 08:18:41;;;;;;;25.95;14.68;;;1.10;99.90;;;;;;5138543;27;20090;-68
2023/12/03 08:21:07;;;;;;;26.17;14.77;;;1.30;99.90;;;;;;5105240;28;20082;-69
2023/12/03 08:23:32;;;;;;;30.00;16.13;;;1.10;99.90;;;;;;5131436;27;20066;-68
2023/12/03 08:25:59;;;;;;;31.80;16.23;;;1.10;99.90;;;;;;5088099;28;20035;-68
2023/12/03 08:28:24;;;;;;;25.42;14.23;;;1.10;99.90;;;;;;5103796;28;20403;-69
2023/12/03 08:30:50;;;;;;;27.80;16.50;;;1.10;99.90;;;;;;5105302;28;20066;-68
2023/12/03 08:33:16;;;;;;;26.40;14.27;;;1.10;99.90;;;;;;5107829;28;20061;-67
2023/12/03 08:35:43;;;;;;;23.92;15.20;;;1.20;99.90;;;;;;5104806;27;20047;-67
2023/12/03 08:38:09;;;;;;;32.83;16.88;;;1.70;99.90;;;;;;5128840;27;20099;-67
2023/12/03 08:40:34;;;;;;;27.40;14.80;;;1.20;99.90;;;;;;5111090;28;20039;-67
2023/12/03 08:43:00;;;;;;;25.42;13.45;;;1.20;99.90;;;;;;5104302;28;20055;-67
2023/12/03 08:45:26;;;;;;;23.85;14.52;;;1.20;99.90;;;;;;5105541;28;20066;-67
2023/12/03 08:47:52;;;;;;;26.52;15.48;;;1.20;99.90;;;;;;5107899;27;20079;-67
2023/12/03 08:50:19;;;;;;;30.42;16.33;;;1.50;99.90;;;;;;5107019;28;20046;-67
2023/12/03 08:52:44;;;;;;;26.13;14.05;;;1.30;99.90;;;;;;5103107;28;20496;-68
2023/12/03 08:55:10;;;;;;;28.27;15.38;;;1.30;99.90;;;;;;5125119;27;20082;-67
2023/12/03 08:57:36;;;;;;;26.27;15.88;;;1.40;99.90;;;;;;5112285;27;20031;-68
2023/12/03 09:00:07;;;;;;;25.45;15.20;;;1.50;99.90;;;;;;5103568;28;20035;-69
2023/12/03 09:02:33;;;;;;;31.02;15.50;;;1.40;99.90;;;;;;5105233;28;20051;-68
2023/12/03 09:04:59;;;;;;;33.20;19.33;;;1.40;99.90;;;;;;5107335;28;20116;-69
2023/12/03 09:07:25;;;;;;;30.58;17.00;;;1.40;99.90;;;;;;5092160;27;20040;-70
2023/12/03 09:09:51;;;;;;;31.55;17.20;;;1.40;99.90;;;;;;5087377;28;20043;-70
2023/12/03 09:12:17;;;;;;;30.23;16.52;;;1.60;99.90;;;;;;5106706;28;20056;-69
2023/12/03 09:14:43;;;;;;;34.97;18.90;;;1.50;99.90;;;;;;5103488;28;20070;-70
2023/12/03 09:17:09;;;;;;;26.70;16.20;;;1.80;99.90;;;;;;5082093;28;20551;-70
2023/12/03 09:19:34;;;;;;;30.55;16.65;;;1.50;99.90;;;;;;5109929;28;20078;-70
2023/12/03 09:22:00;;;;;;;36.05;17.25;;;2.10;99.90;;;;;;5072641;28;20564;-70
2023/12/03 09:24:26;;;;;;;28.50;16.92;;;1.60;99.90;;;;;;5094404;28;20096;-69
2023/12/03 09:26:52;;;;;;;30.98;16.27;;;1.60;99.90;;;;;;5104073;27;20044;-69
2023/12/03 09:29:17;;;;;;;33.17;17.77;;;1.80;99.90;;;;;;5127974;27;20040;-69
2023/12/03 09:31:43;;;;;;;28.40;16.73;;;1.70;99.90;;;;;;5104938;27;20059;-68
2023/12/03 09:34:09;;;;;;;30.58;16.20;;;1.70;99.90;;;;;;5102463;28;20047;-70
2023/12/03 09:36:35;;;;;;;33.53;17.88;;;1.70;99.90;;;;;;5106485;27;20032;-69
2023/12/03 09:39:04;;;;;;;30.10;16.98;;;1.70;99.90;;;;;;5137763;27;20098;-71
2023/12/03 09:41:33;;;;;;;31.65;17.35;;;2.00;99.90;;;;;;5103698;28;20051;-70
2023/12/03 09:44:03;;;;;;;33.67;19.30;;;1.90;99.90;;;;;;5122326;27;20038;-70
2023/12/03 09:46:31;;;;;;;33.53;19.58;;;1.80;99.90;;;;;;5106530;27;20402;-71
2023/12/03 09:49:00;;;;;;;30.80;18.05;;;2.40;99.90;;;;;;5146822;27;20050;-71
2023/12/03 09:51:28;;;;;;;32.53;17.73;;;2.70;99.90;;;;;;5129721;27;20039;-71
2023/12/03 09:53:58;;;;;;;33.53;18.63;;;2.00;99.90;;;;;;5139189;27;20071;-72
2023/12/03 09:56:25;;;;;;;25.85;15.85;;;2.10;99.90;;;;;;5123124;27;20039;-71
2023/12/03 09:58:51;;;;;;;28.23;15.48;;;2.10;99.90;;;;;;5107216;27;20038;-71
2023/12/03 10:01:18;;;;;;;31.23;17.10;;;2.10;99.90;;;;;;5123131;27;20047;-71
2023/12/03 10:03:44;;;;;;;28.25;16.33;;;2.30;99.90;;;;;;5141383;27;20487;-71
2023/12/03 10:06:11;;;;;;;23.50;15.10;;;2.00;99.90;;;;;;5124378;27;20035;-71
2023/12/03 10:08:41;;;;;;;27.48;15.27;;;2.00;99.90;;;;;;5088920;27;20550;-71
2023/12/03 10:11:10;;;;;;;28.30;16.42;;;2.00;99.90;;;;;;5123767;27;20547;-71
2023/12/03 10:13:36;;;;;;;25.92;14.63;;;2.20;99.90;;;;;;5088608;27;20035;-71
2023/12/03 10:16:02;;;;;;;26.67;16.50;;;2.20;99.90;;;;;;5142641;27;20054;-71
2023/12/03 10:18:27;;;;;;;26.05;16.10;;;1.80;99.90;;;;;;5123545;27;20035;-68
2023/12/03 10:21:13;;;;;;;24.45;16.50;;;2.20;99.90;;;;;;5106186;27;20142;-69
2023/12/03 10:23:39;;;;;;;30.40;16.90;;;2.60;99.90;;;;;;5141917;27;20051;-69
2023/12/03 10:26:13;;;;;;;25.77;16.38;;;2.50;99.90;;;;;;5141293;27;20047;-70
2023/12/03 10:28:39;;;;;;;27.98;16.42;;;2.40;99.90;;;;;;5142370;27;20066;-70
2023/12/03 10:31:13;;;;;;;29.08;16.45;;;2.30;99.90;;;;;;5123260;27;20043;-70
2023/12/03 10:33:38;;;;;;;28.63;16.85;;;2.30;99.90;;;;;;5121827;27;20102;-70
2023/12/03 10:36:04;;;;;;;26.33;15.90;;;2.30;99.90;;;;;;5141598;27;20046;-68
2023/12/03 10:38:37;;;;;;;30.75;17.52;;;2.30;99.90;;;;;;5132853;27;20062;-68
2023/12/03 10:41:08;;;;;;;25.23;16.38;;;2.90;99.90;;;;;;5123452;27;20046;-68
2023/12/03 10:43:41;;;;;;;32.28;16.92;;;3.50;99.90;;;;;;5088837;27;20047;-68
2023/12/03 10:46:13;;;;;;;24.80;14.20;;;4.10;99.90;;;;;;5082762;28;20048;-69
2023/12/03 10:48:40;;;;;;;22.83;13.23;;;4.40;99.90;;;;;;5082493;28;20047;-70
2023/12/03 10:51:10;;;;;;;26.00;14.50;;;4.00;99.90;;;;;;5081789;28;20156;-69
2023/12/03 10:53:38;;;;;;;21.73;13.43;;;3.70;99.90;;;;;;5099766;28;20043;-70
2023/12/03 10:56:08;;;;;;;26.50;14.48;;;3.80;99.90;;;;;;5099689;28;20040;-71
2023/12/03 10:58:39;;;;;;;25.15;13.73;;;3.60;99.90;;;;;;5100107;28;20040;-70
2023/12/03 11:01:05;;;;;;;22.05;13.15;;;3.40;99.90;;;;;;5082032;28;20059;-69
2023/12/03 11:03:53;;;;;;;20.38;13.48;;;3.10;99.90;;;;;;5098827;28;20036;-69
2023/12/03 11:06:21;;;;;;;23.20;14.05;;;3.00;99.90;;;;;;5101491;28;20032;-70
2023/12/03 11:08:48;;;;;;;19.73;11.15;;;3.30;99.90;;;;;;5100139;28;20036;-70
2023/12/03 11:11:14;;;;;;;22.67;12.88;;;2.90;99.90;;;;;;5099367;28;20071;-69
2023/12/03 11:13:42;;;;;;;20.70;13.70;;;2.90;99.90;;;;;;5081462;28;20051;-69
2023/12/03 11:16:09;;;;;;;18.77;12.70;;;2.90;99.90;;;;;;5096516;28;20048;-71
2023/12/03 11:18:39;;;;;;;21.13;13.00;;;2.90;99.90;;;;;;5097547;28;20036;-71
2023/12/03 11:21:18;;;;;;;20.52;12.32;;;3.00;99.90;;;;;;5096861;28;20519;-71
2023/12/03 11:24:03;;;;;;;23.75;14.75;;;2.80;99.90;;;;;;5097550;28;20130;-70
2023/12/03 11:26:28;;;;;;;23.95;13.57;;;2.80;99.90;;;;;;5080121;28;20435;-71
2023/12/03 11:28:57;;;;;;;25.75;14.13;;;2.70;99.90;;;;;;5081200;28;20047;-70
2023/12/03 11:31:24;;;;;;;27.17;16.02;;;2.70;99.90;;;;;;5080901;28;20510;-71
2023/12/03 11:33:53;;;;;;;24.27;14.02;;;2.60;99.90;;;;;;5098091;28;20044;-70
2023/12/03 11:36:20;;;;;;;23.60;14.95;;;2.60;99.90;;;;;;5098296;28;20251;-70
2023/12/03 11:38:47;;;;;;;20.23;13.93;;;2.70;99.90;;;;;;5096621;28;20047;-71
2023/12/03 11:41:13;;;;;;;22.13;14.73;;;2.40;99.90;;;;;;5097356;28;20103;-70
2023/12/03 11:43:39;;;;;;;20.13;13.20;;;2.30;99.90;;;;;;5097026;28;20062;-71
2023/12/03 11:46:04;;;;;;;23.48;13.95;;;2.20;99.90;;;;;;5117344;28;20052;-71
2023/12/03 11:48:31;;;;;;;22.75;12.80;;;2.10;99.90;;;;;;5111125;28;20062;-70
2023/12/03 11:50:57;;;;;;;22.55;13.85;;;2.20;99.90;;;;;;5097026;28;20059;-70
2023/12/03 11:53:40;;;;;;;20.80;12.93;;;2.00;99.90;;;;;;5101894;28;20044;-71
2023/12/03 11:56:11;;;;;;;21.95;14.38;;;2.00;99.90;;;;;;5100369;28;20066;-71
2023/12/03 11:58:36;;;;;;;21.75;14.68;;;1.90;99.90;;;;;;5101638;28;20040;-71
2023/12/03 12:01:02;;;;;;;23.20;14.45;;;1.80;99.90;;;;;;5100151;28;20082;-71
2023/12/03 12:03:28;;;;;;;23.17;14.57;;;1.80;99.90;;;;;;5100242;28;20040;-71
2023/12/03 12:05:54;;;;;;;24.13;14.32;;;1.80;99.90;;;;;;5065507;28;20056;-70
2023/12/03 12:08:22;;;;;;;22.55;14.20;;;2.60;99.90;;;;;;5098567;28;20044;-71
2023/12/03 12:10:48;;;;;;;27.30;15.32;;;1.80;99.90;;;;;;5097483;28;20040;-71
2023/12/03 12:13:14;;;;;;;28.80;17.42;;;1.80;99.90;;;;;;5079936;28;20045;-71
2023/12/03 12:15:42;;;;;;;26.35;17.05;;;1.70;99.90;;;;;;5080671;28;20125;-71
2023/12/03 12:18:08;;;;;;;25.20;14.85;;;1.70;99.90;;;;;;5063092;28;20044;-70
2023/12/03 12:20:33;;;;;;;27.30;17.73;;;1.70;99.90;;;;;;5080590;28;20048;-70
2023/12/03 12:22:59;;;;;;;28.90;17.17;;;1.60;99.90;;;;;;5090260;28;20054;-70
2023/12/03 12:25:27;;;;;;;33.42;18.08;;;1.60;99.90;;;;;;5101202;28;20086;-69
2023/12/03 12:27:53;;;;;;;28.45;16.73;;;1.60;99.90;;;;;;5101384;28;20048;-70
2023/12/03 12:30:23;;;;;;;30.75;17.75;;;1.60;99.90;;;;;;5101366;28;20407;-70
2023/12/03 12:32:54;;;;;;;29.85;16.83;;;1.70;99.90;;;;;;5100680;28;20131;-70